Ariana — C6DM3 — position and weather

sailwx.info

Track history (hours):
 
Tides and Currents Weather Stations Pressure Air Temp Water Temp Dewpoint Dewpoint Depression Visibility Wind Speed Wind Dir Waves Ship Positions

Ariana

Last reported at 2019-May-19 18:50 UTC. Time now 2019-Jun-19 05:06 UTC.
Position N 01°18' E 103°20'.
Warning: this ship's position is 30 days out of date.

Length 229 m; draft 14.7 m.

Type: Cargo ship. MMSI: 311000716.

Date/timePositionNaut miles runAvg speedWind from/ knotsBaromVisibWave heightAir tempDewpointWater temp
2019-May-19 18:50N 01°18' E 103°20'410.7
2019-May-19 18:30N 01°16' E 103°23'510.2
2019-May-19 17:58N 01°14' E 103°28'5 9.8
2019-May-19 17:29N 01°12' E 103°32'5 9.7
2019-May-19 17:00N 01°11' E 103°37'5 9.8
2019-May-19 16:30N 01°10' E 103°42'4 8.8
2019-May-19 16:00N 01°09' E 103°46'510.8
2019-May-19 15:30N 01°12' E 103°51'510.7
2019-May-19 15:00N 01°14' E 103°56'2 4.3
2019-May-19 14:30N 01°16' E 103°57'1 1.2
2019-May-19 13:59N 01°16' E 103°57'0 0.0
2019-May-19 13:29N 01°16' E 103°57'0 0.0
2019-May-19 12:56N 01°16' E 103°57'0 0.0
2019-May-19 12:29N 01°16' E 103°57'0 0.0
2019-May-19 12:00N 01°16' E 103°57'0 0.0
2019-May-19 11:30N 01°17' E 103°57'0 0.1
2019-May-19 10:59N 01°17' E 103°57'0 0.2
2019-May-19 10:29N 01°17' E 103°57'0 0.1
2019-May-19 09:56N 01°17' E 103°57'0 0.1
2019-May-19 09:30N 01°17' E 103°57'0 0.0
2019-May-19 08:59N 01°17' E 103°57'0 0.0
2019-May-19 08:30N 01°17' E 103°57'0 0.0
2019-May-19 08:00N 01°17' E 103°57'0 0.0
2019-May-19 07:30N 01°17' E 103°57'0 0.0
2019-May-19 06:59N 01°17' E 103°57'0 0.0
2019-May-19 06:29N 01°17' E 103°57'0 0.0
2019-May-19 05:59N 01°17' E 103°57'0 0.0
2019-May-19 05:29N 01°17' E 103°57'0 0.1
2019-May-19 05:00N 01°17' E 103°57'0 0.5
2019-May-19 04:31N 01°17' E 103°57'1 2.2
2019-May-19 04:01N 01°16' E 103°58'2 3.5
2019-May-19 03:31N 01°16' E 103°60'3 6.0
2019-May-19 03:00N 01°17' E 104°03'4 8.2
2019-May-19 02:31N 01°17' E 104°07'4 7.2
2019-May-19 02:01N 01°17' E 104°10'4 6.8
2019-May-19 01:22N 01°18' E 104°15'  
Track history (hours):
 
Tides and Currents Weather Stations Pressure Air Temp Water Temp Dewpoint Dewpoint Depression Visibility Wind Speed Wind Dir Waves Ship Positions

Ariana

Last reported at 2019-May-19 18:50 UTC. Time now 2019-Jun-19 05:06 UTC.
Position N 01°18' E 103°20'.
Warning: this ship's position is 30 days out of date.

Length 229 m; draft 14.7 m.

Type: Cargo ship. MMSI: 311000716.

Date/timePositionNaut miles runAvg speedWind from/ knotsBaromVisibWave heightAir tempDewpointWater temp
2019-May-19 18:50N 01°18' E 103°20'410.7
2019-May-19 18:30N 01°16' E 103°23'510.2
2019-May-19 17:58N 01°14' E 103°28'5 9.8
2019-May-19 17:29N 01°12' E 103°32'5 9.7
2019-May-19 17:00N 01°11' E 103°37'5 9.8
2019-May-19 16:30N 01°10' E 103°42'4 8.8
2019-May-19 16:00N 01°09' E 103°46'510.8
2019-May-19 15:30N 01°12' E 103°51'510.7
2019-May-19 15:00N 01°14' E 103°56'2 4.3
2019-May-19 14:30N 01°16' E 103°57'1 1.2
2019-May-19 13:59N 01°16' E 103°57'0 0.0
2019-May-19 13:29N 01°16' E 103°57'0 0.0
2019-May-19 12:56N 01°16' E 103°57'0 0.0
2019-May-19 12:29N 01°16' E 103°57'0 0.0
2019-May-19 12:00N 01°16' E 103°57'0 0.0
2019-May-19 11:30N 01°17' E 103°57'0 0.1
2019-May-19 10:59N 01°17' E 103°57'0 0.2
2019-May-19 10:29N 01°17' E 103°57'0 0.1
2019-May-19 09:56N 01°17' E 103°57'0 0.1
2019-May-19 09:30N 01°17' E 103°57'0 0.0
2019-May-19 08:59N 01°17' E 103°57'0 0.0
2019-May-19 08:30N 01°17' E 103°57'0 0.0
2019-May-19 08:00N 01°17' E 103°57'0 0.0
2019-May-19 07:30N 01°17' E 103°57'0 0.0
2019-May-19 06:59N 01°17' E 103°57'0 0.0
2019-May-19 06:29N 01°17' E 103°57'0 0.0
2019-May-19 05:59N 01°17' E 103°57'0 0.0
2019-May-19 05:29N 01°17' E 103°57'0 0.1
2019-May-19 05:00N 01°17' E 103°57'0 0.5
2019-May-19 04:31N 01°17' E 103°57'1 2.2
2019-May-19 04:01N 01°16' E 103°58'2 3.5
2019-May-19 03:31N 01°16' E 103°60'3 6.0
2019-May-19 03:00N 01°17' E 104°03'4 8.2
2019-May-19 02:31N 01°17' E 104°07'4 7.2
2019-May-19 02:01N 01°17' E 104°10'4 6.8
2019-May-19 01:22N 01°18' E 104°15'  

Dump ship's entire track history